Terminal Aerodrome Forecast
Issued by NWS Sterling, VA

Current Version | Previous Version | Text Only | Print | Product List | Glossary Off
Versions: 1 2 3 4 5 6 7 8 9 10 11 12 13 14 15 16 17 18 19 20

000
FTUS41 KLWX 241121
TAFDCA
TAF
KDCA 241121Z 2412/2512 30008KT P6SM SCT200
     FM241500 32010G17KT P6SM FEW080 FEW200
     FM250000 25005KT P6SM FEW070=

USA.gov is the U.S. government's official web portal to all federal, state and local government web resources and services.